Terminal Aerodrome Forecast
Issued by NWS Melbourne, FL

Home | Current Version | Previous Version | Text Only | Print | Product List | Glossary On
Versions: 1 2 3 4 5 6 7 8 9 10 11 12 13 14
000
FTUS42 KMLB 011700
TAFMLB
TAF
KMLB 011740Z 0118/0218 14015G22KT P6SM SCT040
     FM020000 15008KT P6SM SCT040 BKN200
     FM020900 18008KT P6SM SCT020 BKN120
     FM021300 20012G18KT P6SM VCSH SCT025 BKN040=

USA.gov is the U.S. government's official web portal to all federal, state and local government web resources and services.